Time,TemperatureF,DewpointF,PressureIn,WindDirection,WindDirectionDegrees,WindSpeedMPH,WindSpeedGustMPH,Humidity,HourlyPrecipIn,Conditions,Clouds,dailyrainin,SoftwareType,DateUTC
2013-05-17 00:01:00,57.0,43.0,-100.00,WSW,256,1.0,2.0,58,0.00,,,-99.99,,2013-05-17 06:01:00,
2013-05-17 00:11:00,57.0,42.0,-100.00,SSW,206,0.0,1.0,57,0.00,,,-99.99,,2013-05-17 06:11:00,
2013-05-17 00:21:00,58.0,42.0,-100.00,SSW,206,1.0,2.0,57,0.04,,,-99.99,,2013-05-17 06:21:00,
2013-05-17 00:32:00,58.0,42.0,-100.00,SSW,206,1.0,2.0,57,0.04,,,-99.99,,2013-05-17 06:32:00,
2013-05-17 00:42:00,57.0,42.0,-100.00,WSW,254,2.0,3.0,56,0.00,,,-99.99,,2013-05-17 06:42:00,
2013-05-17 00:52:00,57.0,42.0,-100.00,SE,134,3.0,5.0,56,0.00,,,-99.99,,2013-05-17 06:52:00,
2013-05-17 01:02:00,57.0,42.0,-100.00,SE,134,3.0,5.0,56,0.00,,,-99.99,,2013-05-17 07:02:00,
2013-05-17 01:11:00,57.0,42.0,-100.00,SE,140,2.0,4.0,57,0.00,,,-99.99,,2013-05-17 07:11:00,
2013-05-17 01:21:00,57.0,43.0,-100.00,South,172,1.0,2.0,60,0.00,,,-99.99,,2013-05-17 07:21:00,
2013-05-17 01:32:00,57.0,43.0,-100.00,South,172,1.0,2.0,60,0.00,,,-99.99,,2013-05-17 07:32:00,
2013-05-17 01:43:00,56.0,44.0,-100.00,SSE,161,0.0,1.0,64,0.00,,,-99.99,,2013-05-17 07:43:00,
2013-05-17 01:53:00,55.0,45.0,-100.00,South,171,0.0,0.0,68,0.04,,,-99.99,,2013-05-17 07:53:00,
2013-05-17 02:02:00,55.0,45.0,-100.00,South,171,0.0,0.0,68,0.04,,,-99.99,,2013-05-17 08:02:00,
2013-05-17 02:12:00,54.0,47.0,-100.00,SSW,199,0.0,0.0,76,0.04,,,-99.99,,2013-05-17 08:12:00,
2013-05-17 02:22:00,53.0,49.0,-100.00,SE,133,0.0,2.0,86,0.00,,,-99.99,,2013-05-17 08:22:00,
2013-05-17 02:33:00,53.0,49.0,-100.00,SE,133,0.0,2.0,86,0.00,,,-99.99,,2013-05-17 08:33:00,
2013-05-17 02:42:00,52.0,49.0,-100.00,NNW,339,0.0,0.0,88,0.04,,,-99.99,,2013-05-17 08:42:00,
2013-05-17 02:52:00,52.0,49.0,-100.00,NNW,339,0.0,0.0,88,0.04,,,-99.99,,2013-05-17 08:52:00,
2013-05-17 03:02:00,52.0,49.0,-100.00,NNW,339,0.0,0.0,88,0.04,,,-99.99,,2013-05-17 09:02:00,
2013-05-17 03:12:00,51.0,48.0,-100.00,South,181,0.0,0.0,92,0.12,,,-99.99,,2013-05-17 09:12:00,
2013-05-17 03:22:00,50.0,48.0,-100.00,ENE,71,1.0,3.0,93,0.12,,,-99.99,,2013-05-17 09:22:00,
2013-05-17 03:33:00,50.0,48.0,-100.00,ENE,71,1.0,3.0,93,0.12,,,-99.99,,2013-05-17 09:33:00,
2013-05-17 03:42:00,50.0,49.0,-100.00,SSE,151,0.0,2.0,94,0.24,,,-99.99,,2013-05-17 09:42:00,
2013-05-17 03:53:00,50.0,49.0,-100.00,SE,137,1.0,2.0,95,0.16,,,-99.99,,2013-05-17 09:53:00,
2013-05-17 04:03:00,50.0,49.0,-100.00,SE,137,1.0,2.0,95,0.16,,,-99.99,,2013-05-17 10:03:00,
2013-05-17 04:12:00,50.0,49.0,-100.00,South,182,0.0,1.0,96,0.12,,,-99.99,,2013-05-17 10:12:00,
2013-05-17 04:23:00,50.0,49.0,-100.00,SSE,162,0.0,0.0,96,0.12,,,-99.99,,2013-05-17 10:23:00,
2013-05-17 04:32:00,50.0,49.0,-100.00,SSE,162,0.0,0.0,96,0.12,,,-99.99,,2013-05-17 10:32:00,
2013-05-17 04:42:00,50.0,49.0,-100.00,South,175,1.0,2.0,97,0.08,,,-99.99,,2013-05-17 10:42:00,
2013-05-17 04:54:00,50.0,49.0,-100.00,North,3,0.0,0.0,97,0.08,,,-99.99,,2013-05-17 10:54:00,
2013-05-17 05:02:00,50.0,49.0,-100.00,North,3,0.0,0.0,97,0.08,,,-99.99,,2013-05-17 11:02:00,
2013-05-17 05:12:00,50.0,49.0,-100.00,WSW,237,0.0,0.0,97,0.04,,,-99.99,,2013-05-17 11:12:00,
2013-05-17 05:22:00,50.0,49.0,-100.00,WSW,237,0.0,0.0,98,0.04,,,-99.99,,2013-05-17 11:22:00,
2013-05-17 05:33:00,50.0,49.0,-100.00,WSW,237,0.0,0.0,98,0.04,,,-99.99,,2013-05-17 11:33:00,
2013-05-17 05:42:00,50.0,49.0,-100.00,WSW,240,0.0,0.0,98,0.08,,,-99.99,,2013-05-17 11:42:00,
2013-05-17 05:53:00,50.0,49.0,-100.00,SSE,160,0.0,0.0,98,0.04,,,-99.99,,2013-05-17 11:53:00,
2013-05-17 06:02:00,50.0,49.0,-100.00,SSE,160,0.0,0.0,98,0.04,,,-99.99,,2013-05-17 12:02:00,
2013-05-17 06:12:00,49.0,49.0,-100.00,NNE,16,0.0,1.0,98,0.00,,,-99.99,,2013-05-17 12:12:00,
2013-05-17 06:23:00,50.0,49.0,-100.00,SSE,164,3.0,4.0,98,0.08,,,-99.99,,2013-05-17 12:23:00,
2013-05-17 06:32:00,50.0,49.0,-100.00,SSE,164,3.0,4.0,98,0.08,,,-99.99,,2013-05-17 12:32:00,
2013-05-17 06:42:00,49.0,49.0,-100.00,WNW,296,0.0,0.0,98,0.04,,,-99.99,,2013-05-17 12:42:00,
2013-05-17 06:53:00,49.0,49.0,-100.00,SSE,162,0.0,2.0,98,0.08,,,-99.99,,2013-05-17 12:53:00,
2013-05-17 07:03:00,49.0,49.0,-100.00,SSE,162,0.0,2.0,98,0.08,,,-99.99,,2013-05-17 13:03:00,
2013-05-17 07:12:00,49.0,49.0,-100.00,East,99,0.0,0.0,99,0.04,,,-99.99,,2013-05-17 13:12:00,
2013-05-17 07:23:00,49.0,49.0,-100.00,SSE,158,0.0,0.0,99,0.00,,,-99.99,,2013-05-17 13:23:00,
2013-05-17 07:33:00,49.0,49.0,-100.00,SSE,158,0.0,0.0,99,0.00,,,-99.99,,2013-05-17 13:33:00,
2013-05-17 07:42:00,49.0,49.0,-100.00,NNE,20,0.0,0.0,98,0.04,,,-99.99,,2013-05-17 13:42:00,
2013-05-17 07:52:00,50.0,49.0,-100.00,SW,234,0.0,0.0,99,0.04,,,-99.99,,2013-05-17 13:52:00,
2013-05-17 08:01:00,50.0,49.0,-100.00,SW,234,0.0,0.0,99,0.04,,,-99.99,,2013-05-17 14:01:00,
2013-05-17 08:12:00,50.0,49.0,-100.00,West,270,0.0,1.0,99,0.04,,,-99.99,,2013-05-17 14:12:00,
2013-05-17 08:22:00,50.0,49.0,-100.00,West,270,0.0,1.0,99,0.04,,,-99.99,,2013-05-17 14:22:00,
2013-05-17 08:34:00,50.0,49.0,-100.00,West,270,0.0,1.0,99,0.04,,,-99.99,,2013-05-17 14:34:00,
2013-05-17 08:42:00,50.0,50.0,-100.00,WNW,289,0.0,0.0,99,0.04,,,-99.99,,2013-05-17 14:42:00,
2013-05-17 08:53:00,50.0,50.0,-100.00,WNW,291,0.0,0.0,99,0.08,,,-99.99,,2013-05-17 14:53:00,
2013-05-17 09:03:00,50.0,50.0,-100.00,WNW,291,0.0,0.0,99,0.08,,,-99.99,,2013-05-17 15:03:00,
2013-05-17 09:13:00,51.0,50.0,-100.00,WNW,291,0.0,0.0,99,0.00,,,-99.99,,2013-05-17 15:13:00,
2013-05-17 09:25:00,51.0,50.0,-100.00,NW,306,0.0,0.0,99,0.00,,,-99.99,,2013-05-17 15:25:00,
2013-05-17 09:37:00,51.0,50.0,-100.00,NW,306,0.0,0.0,99,0.00,,,-99.99,,2013-05-17 15:37:00,
2013-05-17 09:47:00,51.0,50.0,-100.00,NW,306,0.0,0.0,99,0.00,,,-99.99,,2013-05-17 15:47:00,
2013-05-17 09:57:00,51.0,51.0,-100.00,NW,308,0.0,0.0,99,0.00,,,-99.99,,2013-05-17 15:57:00,
2013-05-17 10:07:00,51.0,51.0,-100.00,NW,308,0.0,0.0,99,0.00,,,-99.99,,2013-05-17 16:07:00,
2013-05-17 10:13:00,51.0,50.0,-100.00,NW,308,0.0,0.0,98,0.08,,,-99.99,,2013-05-17 16:13:00,
2013-05-17 10:26:00,51.0,51.0,-100.00,NW,308,0.0,0.0,98,0.12,,,-99.99,,2013-05-17 16:26:00,
2013-05-17 10:37:00,51.0,51.0,-100.00,NW,308,0.0,0.0,98,0.12,,,-99.99,,2013-05-17 16:37:00,
2013-05-17 10:49:00,51.0,51.0,-100.00,NNE,18,0.0,0.0,98,0.12,,,-99.99,,2013-05-17 16:49:00,
2013-05-17 10:56:00,51.0,51.0,-100.00,NNE,18,0.0,0.0,97,0.04,,,-99.99,,2013-05-17 16:56:00,
2013-05-17 11:07:00,51.0,51.0,-100.00,NNE,18,0.0,0.0,97,0.04,,,-99.99,,2013-05-17 17:07:00,
2013-05-17 11:18:00,51.0,51.0,-100.00,NNE,18,0.0,0.0,97,0.04,,,-99.99,,2013-05-17 17:18:00,
2013-05-17 11:29:00,52.0,51.0,-100.00,NW,312,0.0,0.0,97,0.24,,,-99.99,,2013-05-17 17:29:00,
2013-05-17 11:40:00,52.0,-99.9,-100.00,NW,312,0.0,0.0,97,0.24,,,-99.99,,2013-05-17 17:40:00,
2013-05-17 11:49:00,51.0,50.0,-100.00,West,280,2.0,5.0,95,0.08,,,-99.99,,2013-05-17 17:49:00,
2013-05-17 12:00:00,51.0,49.0,-100.00,NW,311,2.0,3.0,93,0.04,,,-99.99,,2013-05-17 18:00:00,
2013-05-17 12:08:00,51.0,49.0,-100.00,NW,311,2.0,3.0,93,0.04,,,-99.99,,2013-05-17 18:08:00,
2013-05-17 12:20:00,52.0,50.0,-100.00,NNW,339,1.0,3.0,92,0.00,,,-99.99,,2013-05-17 18:20:00,
2013-05-17 12:30:00,53.0,50.0,-100.00,WNW,295,2.0,3.0,90,0.00,,,-99.99,,2013-05-17 18:30:00,
2013-05-17 12:40:00,53.0,50.0,-100.00,WNW,295,2.0,3.0,90,0.00,,,-99.99,,2013-05-17 18:40:00,
2013-05-17 12:50:00,-999.0,-99.9,-100.00,NNW,336,1.0,2.0,87,0.00,,,-99.99,,2013-05-17 18:50:00,
2013-05-17 13:00:00,54.0,49.0,-100.00,NNE,17,2.0,3.0,84,0.00,,,-99.99,,2013-05-17 19:00:00,
2013-05-17 13:10:00,54.0,49.0,-100.00,NNE,17,2.0,3.0,84,0.00,,,-99.99,,2013-05-17 19:10:00,
2013-05-17 13:20:00,54.0,50.0,-100.00,West,277,0.0,2.0,86,0.04,,,-99.99,,2013-05-17 19:20:00,
2013-05-17 13:30:00,54.0,49.0,-100.00,NW,309,2.0,4.0,82,0.00,,,-99.99,,2013-05-17 19:30:00,
2013-05-17 13:40:00,54.0,49.0,-100.00,NW,309,2.0,4.0,82,0.00,,,-99.99,,2013-05-17 19:40:00,
2013-05-17 13:50:00,54.0,48.0,-100.00,NW,306,2.0,3.0,80,0.00,,,-99.99,,2013-05-17 19:50:00,
2013-05-17 14:00:00,55.0,-99.9,-100.00,West,261,1.0,2.0,79,0.00,,,-99.99,,2013-05-17 20:00:00,
2013-05-17 14:09:00,55.0,48.0,-100.00,West,261,1.0,2.0,79,0.00,,,-99.99,,2013-05-17 20:09:00,
2013-05-17 14:20:00,55.0,49.0,-100.00,West,272,2.0,4.0,81,0.00,,,-99.99,,2013-05-17 20:20:00,
2013-05-17 14:30:00,54.0,47.0,-100.00,WNW,301,2.0,3.0,75,0.04,,,-99.99,,2013-05-17 20:30:00,
2013-05-17 14:40:00,54.0,47.0,-100.00,WNW,301,2.0,3.0,75,0.04,,,-99.99,,2013-05-17 20:40:00,
2013-05-17 14:49:00,55.0,48.0,-100.00,West,274,1.0,2.0,78,0.00,,,-99.99,,2013-05-17 20:49:00,
2013-05-17 14:58:00,56.0,48.0,-100.00,WNW,294,2.0,4.0,74,0.00,,,-99.99,,2013-05-17 20:58:00,
2013-05-17 15:07:00,56.0,48.0,-100.00,WNW,294,2.0,4.0,74,0.00,,,-99.99,,2013-05-17 21:07:00,
2013-05-17 15:16:00,57.0,50.0,-100.00,West,267,1.0,3.0,76,0.00,,,-99.99,,2013-05-17 21:16:00,
2013-05-17 15:26:00,58.0,48.0,-100.00,NNW,346,1.0,4.0,68,0.00,,,-99.99,,2013-05-17 21:26:00,
2013-05-17 15:39:00,58.0,48.0,-100.00,NNW,346,1.0,4.0,68,0.00,,,-99.99,,2013-05-17 21:39:00,
2013-05-17 15:49:00,58.0,46.0,-100.00,WNW,299,3.0,5.0,64,0.00,,,-99.99,,2013-05-17 21:49:00,
2013-05-17 15:58:00,59.0,44.0,-100.00,ESE,110,3.0,8.0,57,0.00,,,-99.99,,2013-05-17 21:58:00,
2013-05-17 16:06:00,59.0,44.0,-100.00,ESE,110,3.0,8.0,57,0.00,,,-99.99,,2013-05-17 22:06:00,
2013-05-17 16:17:00,61.0,44.0,-100.00,SSE,168,2.0,4.0,54,0.00,,,-99.99,,2013-05-17 22:17:00,
2013-05-17 16:28:00,60.0,42.0,-100.00,West,267,2.0,5.0,51,0.00,,,-99.99,,2013-05-17 22:28:00,
2013-05-17 16:37:00,60.0,42.0,-100.00,West,267,2.0,5.0,51,0.00,,,-99.99,,2013-05-17 22:37:00,
2013-05-17 16:47:00,60.0,42.0,-100.00,West,267,2.0,5.0,51,0.00,,,-99.99,,2013-05-17 22:47:00,
2013-05-17 16:55:00,60.0,42.0,-100.00,NNE,16,2.0,5.0,49,0.00,,,-99.99,,2013-05-17 22:55:00,
2013-05-17 17:04:00,60.0,42.0,-100.00,NNE,16,2.0,5.0,49,0.00,,,-99.99,,2013-05-17 23:04:00,
2013-05-17 17:13:00,62.0,42.0,-100.00,WNW,301,2.0,4.0,49,0.00,,,-99.99,,2013-05-17 23:13:00,
2013-05-17 17:23:00,62.0,45.0,-100.00,WNW,289,1.0,3.0,52,0.00,,,-99.99,,2013-05-17 23:23:00,
2013-05-17 17:37:00,62.0,45.0,-100.00,WNW,289,1.0,3.0,52,0.00,,,-99.99,,2013-05-17 23:37:00,
2013-05-17 17:47:00,62.0,46.0,-100.00,WNW,299,5.0,8.0,56,0.00,,,-99.99,,2013-05-17 23:47:00,
2013-05-17 17:54:00,61.0,46.0,-100.00,WNW,299,2.0,5.0,58,0.00,,,-99.99,,2013-05-17 23:54:00,
2013-05-17 18:02:00,61.0,46.0,-100.00,WNW,299,2.0,5.0,58,0.00,,,-99.99,,2013-05-18 00:02:00,
2013-05-17 18:14:00,60.0,46.0,-100.00,NW,304,9.0,12.0,60,0.00,,,-99.99,,2013-05-18 00:14:00,
2013-05-17 18:21:00,61.0,47.0,-100.00,WNW,298,8.0,11.0,59,0.00,,,-99.99,,2013-05-18 00:21:00,
2013-05-17 18:33:00,61.0,47.0,-100.00,WNW,298,8.0,11.0,59,0.00,,,-99.99,,2013-05-18 00:33:00,
2013-05-17 18:44:00,58.0,43.0,-100.00,NW,311,6.0,8.0,58,0.00,,,-99.99,,2013-05-18 00:44:00,
2013-05-17 18:54:00,56.0,47.0,-100.00,NNE,30,1.0,3.0,70,0.04,,,-99.99,,2013-05-18 00:54:00,
2013-05-17 19:02:00,56.0,47.0,-100.00,NNE,30,1.0,3.0,70,0.04,,,-99.99,,2013-05-18 01:02:00,
2013-05-17 19:13:00,54.0,49.0,-100.00,SSE,162,2.0,4.0,84,0.12,,,-99.99,,2013-05-18 01:13:00,
2013-05-17 19:24:00,54.0,50.0,-100.00,ENE,69,0.0,1.0,87,0.00,,,-99.99,,2013-05-18 01:24:00,
2013-05-17 19:31:00,54.0,50.0,-100.00,ENE,69,0.0,1.0,87,0.00,,,-99.99,,2013-05-18 01:31:00,
2013-05-17 19:42:00,53.0,51.0,-100.00,West,261,0.0,0.0,90,0.00,,,-99.99,,2013-05-18 01:42:00,
2013-05-17 19:52:00,53.0,50.0,-100.00,NNW,332,0.0,1.0,89,0.00,,,-99.99,,2013-05-18 01:52:00,
2013-05-17 20:02:00,53.0,50.0,-100.00,NNW,332,0.0,1.0,89,0.00,,,-99.99,,2013-05-18 02:02:00,
2013-05-17 20:11:00,54.0,51.0,-100.00,West,280,0.0,0.0,89,0.00,,,-99.99,,2013-05-18 02:11:00,
2013-05-17 20:22:00,53.0,50.0,-100.00,West,261,0.0,0.0,88,0.00,,,-99.99,,2013-05-18 02:22:00,
2013-05-17 20:31:00,53.0,50.0,-100.00,West,261,0.0,0.0,88,0.00,,,-99.99,,2013-05-18 02:31:00,
2013-05-17 20:42:00,53.0,49.0,-100.00,WSW,248,0.0,0.0,88,0.00,,,-99.99,,2013-05-18 02:42:00,
2013-05-17 20:53:00,53.0,50.0,-100.00,East,88,1.0,2.0,91,0.00,,,-99.99,,2013-05-18 02:53:00,
2013-05-17 21:02:00,53.0,50.0,-100.00,East,88,1.0,2.0,91,0.00,,,-99.99,,2013-05-18 03:02:00,
2013-05-17 21:12:00,52.0,50.0,-100.00,NW,305,0.0,1.0,91,0.00,,,-99.99,,2013-05-18 03:12:00,
2013-05-17 21:22:00,52.0,50.0,-100.00,West,277,0.0,0.0,93,0.00,,,-99.99,,2013-05-18 03:22:00,
2013-05-17 21:32:00,52.0,50.0,-100.00,West,277,0.0,0.0,93,0.00,,,-99.99,,2013-05-18 03:32:00,
2013-05-17 21:43:00,52.0,50.0,-100.00,South,182,0.0,1.0,94,0.00,,,-99.99,,2013-05-18 03:43:00,
2013-05-17 21:53:00,52.0,50.0,-100.00,North,1,1.0,2.0,93,0.00,,,-99.99,,2013-05-18 03:53:00,
2013-05-17 22:02:00,52.0,50.0,-100.00,North,1,1.0,2.0,93,0.00,,,-99.99,,2013-05-18 04:02:00,
2013-05-17 22:12:00,51.0,49.0,-100.00,NNE,14,0.0,1.0,93,0.00,,,-99.99,,2013-05-18 04:12:00,
2013-05-17 22:23:00,50.0,48.0,-100.00,ESE,110,1.0,2.0,93,0.00,,,-99.99,,2013-05-18 04:23:00,
2013-05-17 22:32:00,50.0,48.0,-100.00,ESE,110,1.0,2.0,93,0.00,,,-99.99,,2013-05-18 04:32:00,
2013-05-17 22:42:00,50.0,49.0,-100.00,East,80,0.0,2.0,93,0.00,,,-99.99,,2013-05-18 04:42:00,
2013-05-17 22:52:00,50.0,48.0,-100.00,North,357,2.0,3.0,93,0.00,,,-99.99,,2013-05-18 04:52:00,
2013-05-17 23:02:00,50.0,48.0,-100.00,North,357,2.0,3.0,93,0.00,,,-99.99,,2013-05-18 05:02:00,
2013-05-17 23:12:00,50.0,48.0,-100.00,NW,309,0.0,0.0,93,0.00,,,-99.99,,2013-05-18 05:12:00,
2013-05-17 23:22:00,50.0,48.0,-100.00,South,169,0.0,1.0,94,0.00,,,-99.99,,2013-05-18 05:22:00,
2013-05-17 23:31:00,50.0,48.0,-100.00,South,169,0.0,1.0,94,0.00,,,-99.99,,2013-05-18 05:31:00,
2013-05-17 23:41:00,49.0,48.0,-100.00,ESE,116,0.0,1.0,94,0.00,,,-99.99,,2013-05-18 05:41:00,
2013-05-17 23:52:00,49.0,47.0,-100.00,WSW,253,0.0,0.0,93,0.00,,,-99.99,,2013-05-18 05:52:00,